Aviation Digital Data Service (ADDS)

Output produced by METARs form (1040 UTC 23 January 2017)
found at http://www.aviationweather.gov/adds/metars/
 
KAOO 230953Z AUTO 09018G27KT 6SM BR OVC009 08/06 A2959 RMK AO2 PK WND 08027/0951 RAE06B23E49 CIG 008V013 SLP024 P0000 T00780056
KAOO 230853Z AUTO 09016G26KT 9SM -RA OVC009 08/06 A2960 RMK AO2 PK WND 13029/0807 RAB53 CIG 008V013 SLP027 P0000 60000 T00830061 57004
KAOO 230803Z AUTO 10018G26KT 10SM OVC010 08/07 A2960 RMK AO2 PK WND 11026/0754 T00830067
KAOO 230753Z AUTO 11017G25KT 8SM BKN008 OVC012 08/07 A2961 RMK AO2 PK WND 10027/0737 SLP031 T00830067
KAOO 230653Z AUTO 10012G17KT 060V130 9SM OVC005 08/07 A2961 RMK AO2 SLP031 T00830072
KAOO 230553Z AUTO 09012KT 10SM OVC007 08/07 A2962 RMK AO2 SLP034 60005 T00780072 10078 20067 58008
KAOO 230453Z AUTO 08009KT 6SM BR OVC009 08/07 A2964 RMK AO2 RAE46 SLP042 P0002 T00780067 400780050
KAOO 230409Z AUTO 08008KT 6SM -RA BR OVC007 07/07 A2964 RMK AO2 P0001 T00720067
KAOO 230353Z AUTO 07006KT 3SM -RA BR OVC004 07/07 A2963 RMK AO2 RAB18 SLP041 P0003 T00720067
KAOO 230337Z AUTO 05006KT 2 1/2SM -RA BR OVC002 07/07 A2964 RMK AO2 RAB18 P0001 T00670067
KAOO 230325Z AUTO 05007KT 1 1/4SM -RA BR OVC002 07/07 A2963 RMK AO2 RAB18 P0001 T00670067
KAOO 230301Z AUTO 07006KT 3/4SM BR VV002 07/07 A2964 RMK AO2 T00670067
KAOO 230253Z AUTO 06006KT 1/2SM FG VV002 07/06 A2964 RMK AO2 SLP045 T00670061 58002
KAOO 230153Z AUTO 04007KT 1/4SM FG VV002 07/06 A2964 RMK AO2 SLP045 T00670061
KAOO 230053Z AUTO 06005KT 1/4SM FG VV002 07/06 A2965 RMK AO2 SLP049 T00670061
KAOO 222353Z AUTO 06003KT 1/2SM FG VV002 07/06 A2965 RMK AO2 SLP047 T00670061 10072 20067 53009
KAOO 222253Z AUTO 05004KT 1/4SM FG VV002 07/06 A2963 RMK AO2 SLP042 T00670061
KAOO 222244Z AUTO 00000KT 1/2SM FG VV002 07/07 A2964 RMK AO2 T00670067
KAOO 222230Z AUTO 08003KT 3/4SM BR VV002 07/07 A2963 RMK AO2 T00670067
KAOO 222218Z AUTO 07004KT 1SM BR OVC002 07/07 A2962 RMK AO2 T00670067
KAOO 222208Z AUTO 07003KT 2SM BR OVC002 07/06 A2962 RMK AO2 T00670061
KAOO 222159Z AUTO 03007KT 1SM BR VV002 07/06 A2961 RMK AO2 T00670061
KAOO 222153Z AUTO 05005KT 1/4SM FG VV002 07/07 A2962 RMK AO2 SLP038 T00720067
KAOO 222143Z AUTO 04004KT 1/4SM FG VV002 07/07 A2963 RMK AO2 T00720067
KAOO 222135Z AUTO 05004KT 3/4SM BR OVC002 07/07 A2963 RMK AO2 T00720067
KAOO 222121Z AUTO 06003KT 1 3/4SM BR OVC002 07/07 A2963 RMK AO2 T00720067
KAOO 222109Z AUTO 07003KT 3SM BR OVC002 07/07 A2963 RMK AO2 T00720067
KAOO 222053Z AUTO 07003KT 1 3/4SM BR OVC002 07/07 A2962 RMK AO2 SLP037 T00720067 56005
KAOO 222041Z AUTO 06004KT 1SM BR VV002 07/07 A2963 RMK AO2 T00720067
KAOO 221953Z AUTO 00000KT 1/2SM FG VV002 07/07 A2964 RMK AO2 SLP044 T00720067
KAOO 221914Z AUTO 01005KT 1/2SM FG VV002 07/07 A2962 RMK AO2 T00720067
KAOO 221910Z AUTO 05004KT 1SM BR VV002 07/07 A2962 RMK AO2 T00720067
KAOO 221853Z AUTO 07005KT 1/4SM FG VV002 07/07 A2961 RMK AO2 SLP034 T00720067
KAOO 221753Z AUTO 08003KT 1/4SM FG VV002 07/07 A2964 RMK AO2 SLP043 T00670067 10067 20050 58025
KAOO 221653Z AUTO 00000KT 1/4SM FG VV002 06/06 A2967 RMK AO2 SLP056 T00610061
KAOO 221553Z AUTO 00000KT 1/4SM FG VV002 06/05 A2970 RMK AO2 SLP066 T00610050
KAOO 221453Z AUTO 00000KT 1/4SM FG VV002 06/06 A2972 RMK AO2 SLP070 T00560056 51016
KAOO 221353Z AUTO 00000KT M1/4SM FG VV002 05/05 A2970 RMK AO2 SLP066 T00500050
KAOO 221253Z AUTO 00000KT M1/4SM FG VV002 05/05 A2969 RMK AO2 SLP062 T00500050
KAOO 221153Z AUTO 02004KT 1/4SM FG VV002 06/05 A2967 RMK AO2 SLP053 T00560050 10061 20056 58006
KAOO 221053Z AUTO 00000KT 1/4SM FG VV002 06/06 A2969 RMK AO2 SLP061 T00560056
KAOO 220953Z AUTO 00000KT 1/4SM FG VV001 06/06 A2969 RMK AO2 SLP062 T00610056
KAOO 220853Z AUTO 00000KT 1/4SM FG VV002 06/06 A2969 RMK AO2 SLP058 T00610056 58007
KAOO 220753Z AUTO 00000KT 1/4SM FG VV002 06/06 A2972 RMK AO2 SLP070 T00610056
KAOO 220653Z AUTO 00000KT 1/4SM FG VV002 06/06 A2972 RMK AO2 SLP069 T00610061
KAOO 220553Z AUTO 00000KT 1/4SM FG VV002 06/06 A2971 RMK AO2 SLP065 T00610061 10067 20061 56019
KAOO 220548Z AUTO 00000KT 1/4SM FG VV003 06/06 A2971 RMK AO2
KAOO 220453Z AUTO 00000KT 1/4SM FG VV002 06/06 A2974 RMK AO2 SLP078 T00610056 401000017
KAOO 220353Z AUTO 00000KT 1/4SM FG VV002 06/06 A2977 RMK AO2 SLP087 T00610061
KAOO 220310Z AUTO 01003KT 1/2SM FG VV002 07/06 A2977 RMK AO2 T00670061
KAOO 220253Z AUTO 00000KT 1/2SM FG VV003 07/06 A2977 RMK AO2 SLP088 T00670061 50003
KAOO 220214Z AUTO 00000KT 1/4SM FG VV003 07/06 A2978 RMK AO2 T00670061
KAOO 220153Z AUTO 00000KT 1/4SM FG VV002 07/06 A2978 RMK AO2 SLP093 T00670061
KAOO 220053Z AUTO 00000KT 1/4SM FG VV002 06/06 A2977 RMK AO2 SLP090 T00610061
KAOO 212353Z AUTO 06004KT 1/4SM FG VV001 06/06 A2976 RMK AO2 SLP086 T00610061 10100 20061 50002
KAOO 212253Z AUTO 06003KT 1/4SM FG VV001 07/06 A2976 RMK AO2 SLP087 T00670061